This is the latest recevied weather packets stored in our database for station/object KK4MOR. If no packets are shown the sender has not sent any weather packets the latest 10 day(s).
| Time | Temp. | Humidity | Pressure | Rain* | Wind** | Luminosity | Snow |
|---|---|---|---|---|---|---|---|
| 1777768214 | 11.11° C | 74% | 1015.3 hPa | 0 mm | - | - | - |
| 1777767315 | 11.67° C | 71% | 1015.2 hPa | 0 mm | - | - | - |
| 1777766412 | 12.22° C | 68% | 1014.7 hPa | 0 mm | - | - | - |
| 1777765512 | 12.78° C | 65% | 1014.5 hPa | 0 mm | - | - | - |
| 1777764612 | 12.78° C | 64% | 1014.5 hPa | 0 mm | - | - | - |
| 1777763716 | 12.78° C | 64% | 1014.4 hPa | 0 mm | - | - | - |
| 1777762810 | 14.44° C | 56% | 1014.3 hPa | 0 mm | - | - | - |
| 1777761911 | 15.56° C | 48% | 1013.9 hPa | 0 mm | - | - | - |
| 1777761010 | 15.56° C | 47% | 1013.7 hPa | 0 mm | - | - | - |
| 1777760109 | 16.11° C | 46% | 1013.5 hPa | 0 mm | - | - | - |
| 1777759210 | 16.11° C | 45% | 1013.3 hPa | 0 mm | - | - | - |
| 1777758309 | 17.22° C | 44% | 1013.1 hPa | 0 mm | - | - | - |
| 1777757407 | 17.22° C | 41% | 1013 hPa | 0 mm | - | - | - |
| 1777756509 | 16.11° C | 43% | 1013.1 hPa | 0 mm | - | - | - |
| 1777755604 | 17.22° C | 40% | 1013.2 hPa | 0 mm | - | - | - |
| 1777754705 | 17.22° C | 41% | 1013.2 hPa | 0 mm | - | - | - |
| 1777753804 | 17.22° C | 41% | 1013.3 hPa | 0 mm | - | - | - |
| 1777752903 | 16.11° C | 42% | 1013.7 hPa | 0 mm | - | - | - |
| 1777752002 | 16.67° C | 44% | 1013.8 hPa | 0 mm | - | - | - |
| 1777751102 | 16.11° C | 45% | 1013.9 hPa | 0 mm | - | - | - |
| 1777750201 | 16.11° C | 43% | 1014 hPa | 0 mm | - | - | - |
| 1777749361 | 16.11° C | 43% | 1014.1 hPa | 0 mm | - | - | - |
| 1777748467 | 16.11° C | 41% | 1014 hPa | 0 mm | - | - | - |
| 1777747561 | 16.67° C | 42% | 1014.1 hPa | 0 mm | - | - | - |
| 1777746657 | 16.11° C | 44% | 1014.3 hPa | 0 mm | - | - | - |
* Rain latest hour (hover to see other rain measurements)
** Current wind speed in m/s (hover to see current wind gust speed)